sensor_id;sensor_type;location;lat;lon;timestamp;P1;durP1;ratioP1;P2;durP2;ratioP2
23384;SDS011;11865;45.394;10.978;2022-10-16T00:01:41;81.28;;;42.30;;
23384;SDS011;11865;45.394;10.978;2022-10-16T00:04:09;83.00;;;43.53;;
23384;SDS011;11865;45.394;10.978;2022-10-16T00:06:36;84.15;;;44.17;;
23384;SDS011;11865;45.394;10.978;2022-10-16T00:09:05;83.03;;;42.55;;
23384;SDS011;11865;45.394;10.978;2022-10-16T00:11:34;80.93;;;42.88;;
23384;SDS011;11865;45.394;10.978;2022-10-16T00:14:06;76.10;;;40.42;;
23384;SDS011;11865;45.394;10.978;2022-10-16T00:16:35;80.40;;;41.13;;
23384;SDS011;11865;45.394;10.978;2022-10-16T00:19:03;71.82;;;39.88;;
23384;SDS011;11865;45.394;10.978;2022-10-16T00:21:31;75.47;;;40.60;;
23384;SDS011;11865;45.394;10.978;2022-10-16T00:24:02;77.93;;;39.45;;
23384;SDS011;11865;45.394;10.978;2022-10-16T00:26:33;74.80;;;39.88;;
23384;SDS011;11865;45.394;10.978;2022-10-16T00:29:01;71.43;;;39.33;;
23384;SDS011;11865;45.394;10.978;2022-10-16T00:31:30;79.85;;;40.13;;
23384;SDS011;11865;45.394;10.978;2022-10-16T00:33:57;72.72;;;40.72;;
23384;SDS011;11865;45.394;10.978;2022-10-16T00:36:25;74.60;;;40.00;;
23384;SDS011;11865;45.394;10.978;2022-10-16T00:38:54;71.72;;;39.35;;
23384;SDS011;11865;45.394;10.978;2022-10-16T00:41:23;78.10;;;39.97;;
23384;SDS011;11865;45.394;10.978;2022-10-16T00:43:53;74.75;;;40.22;;
23384;SDS011;11865;45.394;10.978;2022-10-16T00:46:27;78.65;;;40.35;;
23384;SDS011;11865;45.394;10.978;2022-10-16T00:49:09;72.18;;;39.75;;
23384;SDS011;11865;45.394;10.978;2022-10-16T00:51:38;71.53;;;39.78;;
23384;SDS011;11865;45.394;10.978;2022-10-16T00:54:08;81.13;;;41.25;;
23384;SDS011;11865;45.394;10.978;2022-10-16T00:57:09;75.32;;;40.47;;
23384;SDS011;11865;45.394;10.978;2022-10-16T00:59:38;74.03;;;40.97;;
23384;SDS011;11865;45.394;10.978;2022-10-16T01:02:08;74.35;;;40.30;;
23384;SDS011;11865;45.394;10.978;2022-10-16T01:04:49;77.78;;;40.63;;
23384;SDS011;11865;45.394;10.978;2022-10-16T01:13:14;80.70;;;40.53;;
23384;SDS011;11865;45.394;10.978;2022-10-16T01:15:55;68.55;;;39.13;;
23384;SDS011;11865;45.394;10.978;2022-10-16T01:18:42;71.68;;;38.22;;
23384;SDS011;11865;45.394;10.978;2022-10-16T01:21:19;71.32;;;36.92;;
23384;SDS011;11865;45.394;10.978;2022-10-16T01:27:24;70.22;;;38.25;;
23384;SDS011;11865;45.394;10.978;2022-10-16T01:29:39;70.93;;;36.42;;
23384;SDS011;11865;45.394;10.978;2022-10-16T01:32:14;71.30;;;37.03;;
23384;SDS011;11865;45.394;10.978;2022-10-16T01:34:58;77.50;;;39.33;;
23384;SDS011;11865;45.394;10.978;2022-10-16T01:37:47;83.28;;;42.70;;
23384;SDS011;11865;45.394;10.978;2022-10-16T01:40:20;77.72;;;40.35;;
23384;SDS011;11865;45.394;10.978;2022-10-16T01:42:53;66.88;;;36.58;;
23384;SDS011;11865;45.394;10.978;2022-10-16T01:45:29;67.63;;;36.47;;
23384;SDS011;11865;45.394;10.978;2022-10-16T01:48:00;76.53;;;39.80;;
23384;SDS011;11865;45.394;10.978;2022-10-16T01:50:35;69.40;;;37.17;;
23384;SDS011;11865;45.394;10.978;2022-10-16T01:53:07;72.13;;;37.65;;
23384;SDS011;11865;45.394;10.978;2022-10-16T01:55:39;75.03;;;38.72;;
23384;SDS011;11865;45.394;10.978;2022-10-16T01:58:12;71.93;;;37.38;;
23384;SDS011;11865;45.394;10.978;2022-10-16T02:00:43;70.00;;;37.85;;
23384;SDS011;11865;45.394;10.978;2022-10-16T02:03:14;68.93;;;38.05;;
23384;SDS011;11865;45.394;10.978;2022-10-16T02:05:46;77.50;;;40.25;;
23384;SDS011;11865;45.394;10.978;2022-10-16T02:08:22;78.35;;;40.78;;
23384;SDS011;11865;45.394;10.978;2022-10-16T02:10:55;72.55;;;39.97;;
23384;SDS011;11865;45.394;10.978;2022-10-16T02:13:35;68.28;;;37.83;;
23384;SDS011;11865;45.394;10.978;2022-10-16T02:16:12;69.18;;;36.65;;
23384;SDS011;11865;45.394;10.978;2022-10-16T02:18:41;70.40;;;37.28;;
23384;SDS011;11865;45.394;10.978;2022-10-16T02:21:14;67.95;;;37.90;;
23384;SDS011;11865;45.394;10.978;2022-10-16T02:24:03;70.43;;;36.50;;
23384;SDS011;11865;45.394;10.978;2022-10-16T02:31:54;66.40;;;35.83;;
23384;SDS011;11865;45.394;10.978;2022-10-16T02:34:25;65.50;;;35.72;;
23384;SDS011;11865;45.394;10.978;2022-10-16T02:36:54;68.38;;;36.80;;
23384;SDS011;11865;45.394;10.978;2022-10-16T02:39:24;68.32;;;36.65;;
23384;SDS011;11865;45.394;10.978;2022-10-16T02:41:53;67.60;;;35.60;;
23384;SDS011;11865;45.394;10.978;2022-10-16T02:44:21;70.38;;;38.38;;
23384;SDS011;11865;45.394;10.978;2022-10-16T02:46:48;71.55;;;36.80;;
23384;SDS011;11865;45.394;10.978;2022-10-16T02:49:16;62.67;;;35.60;;
23384;SDS011;11865;45.394;10.978;2022-10-16T02:51:44;67.85;;;34.47;;
23384;SDS011;11865;45.394;10.978;2022-10-16T02:54:12;65.80;;;37.72;;
23384;SDS011;11865;45.394;10.978;2022-10-16T02:56:39;66.53;;;36.20;;
23384;SDS011;11865;45.394;10.978;2022-10-16T02:59:07;70.53;;;37.35;;
23384;SDS011;11865;45.394;10.978;2022-10-16T03:01:35;65.05;;;36.42;;
23384;SDS011;11865;45.394;10.978;2022-10-16T03:04:03;70.38;;;37.40;;
23384;SDS011;11865;45.394;10.978;2022-10-16T03:06:30;71.68;;;38.13;;
23384;SDS011;11865;45.394;10.978;2022-10-16T03:08:58;69.82;;;36.75;;
23384;SDS011;11865;45.394;10.978;2022-10-16T03:11:25;75.25;;;38.00;;
23384;SDS011;11865;45.394;10.978;2022-10-16T03:13:53;68.82;;;37.72;;
23384;SDS011;11865;45.394;10.978;2022-10-16T03:16:20;72.07;;;37.78;;
23384;SDS011;11865;45.394;10.978;2022-10-16T03:18:48;72.47;;;39.00;;
23384;SDS011;11865;45.394;10.978;2022-10-16T03:21:16;66.38;;;35.90;;
23384;SDS011;11865;45.394;10.978;2022-10-16T03:23:44;72.45;;;38.35;;
23384;SDS011;11865;45.394;10.978;2022-10-16T03:26:11;74.55;;;39.42;;
23384;SDS011;11865;45.394;10.978;2022-10-16T03:28:38;67.88;;;37.13;;
23384;SDS011;11865;45.394;10.978;2022-10-16T03:31:06;65.47;;;36.85;;
23384;SDS011;11865;45.394;10.978;2022-10-16T03:33:35;71.13;;;38.78;;
23384;SDS011;11865;45.394;10.978;2022-10-16T03:36:02;68.65;;;38.53;;
23384;SDS011;11865;45.394;10.978;2022-10-16T03:38:29;70.88;;;37.40;;
23384;SDS011;11865;45.394;10.978;2022-10-16T03:40:57;66.45;;;36.33;;
23384;SDS011;11865;45.394;10.978;2022-10-16T03:43:24;70.35;;;37.40;;
23384;SDS011;11865;45.394;10.978;2022-10-16T03:45:52;76.75;;;38.97;;
23384;SDS011;11865;45.394;10.978;2022-10-16T03:48:19;75.57;;;37.80;;
23384;SDS011;11865;45.394;10.978;2022-10-16T03:50:47;70.05;;;38.28;;
23384;SDS011;11865;45.394;10.978;2022-10-16T03:53:15;66.78;;;36.38;;
23384;SDS011;11865;45.394;10.978;2022-10-16T03:55:42;77.40;;;40.05;;
23384;SDS011;11865;45.394;10.978;2022-10-16T03:58:10;76.10;;;38.33;;
23384;SDS011;11865;45.394;10.978;2022-10-16T04:00:41;69.72;;;37.33;;
23384;SDS011;11865;45.394;10.978;2022-10-16T04:03:10;68.97;;;38.08;;
23384;SDS011;11865;45.394;10.978;2022-10-16T04:05:38;71.07;;;39.50;;
23384;SDS011;11865;45.394;10.978;2022-10-16T04:08:05;70.50;;;38.35;;
23384;SDS011;11865;45.394;10.978;2022-10-16T04:10:33;69.60;;;38.35;;
23384;SDS011;11865;45.394;10.978;2022-10-16T04:13:00;77.05;;;39.63;;
23384;SDS011;11865;45.394;10.978;2022-10-16T04:15:28;70.57;;;38.20;;
23384;SDS011;11865;45.394;10.978;2022-10-16T04:17:55;66.10;;;37.83;;
23384;SDS011;11865;45.394;10.978;2022-10-16T04:20:23;71.10;;;38.67;;
23384;SDS011;11865;45.394;10.978;2022-10-16T04:22:50;68.60;;;37.05;;
23384;SDS011;11865;45.394;10.978;2022-10-16T04:25:18;69.05;;;37.40;;
23384;SDS011;11865;45.394;10.978;2022-10-16T04:27:45;62.63;;;36.92;;
23384;SDS011;11865;45.394;10.978;2022-10-16T04:30:12;68.00;;;36.90;;
23384;SDS011;11865;45.394;10.978;2022-10-16T04:32:40;68.40;;;37.15;;
23384;SDS011;11865;45.394;10.978;2022-10-16T04:35:08;72.00;;;38.22;;
23384;SDS011;11865;45.394;10.978;2022-10-16T04:37:35;74.78;;;40.55;;
23384;SDS011;11865;45.394;10.978;2022-10-16T04:40:03;73.13;;;38.15;;
23384;SDS011;11865;45.394;10.978;2022-10-16T04:42:31;73.38;;;38.30;;
23384;SDS011;11865;45.394;10.978;2022-10-16T04:44:58;72.00;;;39.05;;
23384;SDS011;11865;45.394;10.978;2022-10-16T04:47:26;73.75;;;37.92;;
23384;SDS011;11865;45.394;10.978;2022-10-16T04:49:54;68.03;;;37.55;;
23384;SDS011;11865;45.394;10.978;2022-10-16T04:52:21;70.82;;;38.15;;
23384;SDS011;11865;45.394;10.978;2022-10-16T04:54:51;74.25;;;41.25;;
23384;SDS011;11865;45.394;10.978;2022-10-16T04:57:18;79.82;;;40.80;;
23384;SDS011;11865;45.394;10.978;2022-10-16T04:59:46;78.47;;;40.75;;
23384;SDS011;11865;45.394;10.978;2022-10-16T05:02:13;79.88;;;40.95;;
23384;SDS011;11865;45.394;10.978;2022-10-16T05:04:41;75.57;;;38.47;;
23384;SDS011;11865;45.394;10.978;2022-10-16T05:07:08;72.38;;;39.15;;
23384;SDS011;11865;45.394;10.978;2022-10-16T05:09:36;78.18;;;41.60;;
23384;SDS011;11865;45.394;10.978;2022-10-16T05:12:03;78.47;;;41.97;;
23384;SDS011;11865;45.394;10.978;2022-10-16T05:14:31;79.85;;;42.70;;
23384;SDS011;11865;45.394;10.978;2022-10-16T05:16:59;83.95;;;41.33;;
23384;SDS011;11865;45.394;10.978;2022-10-16T05:19:26;71.82;;;38.80;;
23384;SDS011;11865;45.394;10.978;2022-10-16T05:21:55;72.30;;;39.45;;
23384;SDS011;11865;45.394;10.978;2022-10-16T05:24:22;77.88;;;40.58;;
23384;SDS011;11865;45.394;10.978;2022-10-16T05:26:50;70.78;;;38.47;;
23384;SDS011;11865;45.394;10.978;2022-10-16T05:29:18;69.30;;;38.42;;
23384;SDS011;11865;45.394;10.978;2022-10-16T05:31:45;73.93;;;37.78;;
23384;SDS011;11865;45.394;10.978;2022-10-16T05:34:13;89.07;;;42.38;;
23384;SDS011;11865;45.394;10.978;2022-10-16T05:36:40;84.45;;;43.80;;
23384;SDS011;11865;45.394;10.978;2022-10-16T05:39:08;79.97;;;43.28;;
23384;SDS011;11865;45.394;10.978;2022-10-16T05:41:35;90.78;;;44.28;;
23384;SDS011;11865;45.394;10.978;2022-10-16T05:44:03;85.40;;;43.17;;
23384;SDS011;11865;45.394;10.978;2022-10-16T05:46:32;88.30;;;42.50;;
23384;SDS011;11865;45.394;10.978;2022-10-16T05:49:00;78.03;;;41.05;;
23384;SDS011;11865;45.394;10.978;2022-10-16T05:51:27;82.72;;;42.17;;
23384;SDS011;11865;45.394;10.978;2022-10-16T05:53:55;83.38;;;43.67;;
23384;SDS011;11865;45.394;10.978;2022-10-16T05:56:22;84.60;;;44.47;;
23384;SDS011;11865;45.394;10.978;2022-10-16T05:58:50;82.47;;;44.70;;
23384;SDS011;11865;45.394;10.978;2022-10-16T06:01:18;91.75;;;43.88;;
23384;SDS011;11865;45.394;10.978;2022-10-16T06:03:47;93.22;;;44.03;;
23384;SDS011;11865;45.394;10.978;2022-10-16T06:06:17;81.07;;;42.85;;
23384;SDS011;11865;45.394;10.978;2022-10-16T06:08:49;82.35;;;41.70;;
23384;SDS011;11865;45.394;10.978;2022-10-16T06:11:20;85.15;;;42.92;;
23384;SDS011;11865;45.394;10.978;2022-10-16T06:13:52;78.30;;;42.53;;
23384;SDS011;11865;45.394;10.978;2022-10-16T06:16:21;85.95;;;43.78;;
23384;SDS011;11865;45.394;10.978;2022-10-16T06:18:50;80.05;;;43.20;;
23384;SDS011;11865;45.394;10.978;2022-10-16T06:21:20;79.88;;;42.17;;
23384;SDS011;11865;45.394;10.978;2022-10-16T06:23:49;91.13;;;43.10;;
23384;SDS011;11865;45.394;10.978;2022-10-16T06:26:17;83.60;;;43.38;;
23384;SDS011;11865;45.394;10.978;2022-10-16T06:28:46;78.68;;;41.90;;
23384;SDS011;11865;45.394;10.978;2022-10-16T06:31:14;87.53;;;43.85;;
23384;SDS011;11865;45.394;10.978;2022-10-16T06:33:43;80.90;;;42.30;;
23384;SDS011;11865;45.394;10.978;2022-10-16T06:36:13;83.93;;;41.70;;
23384;SDS011;11865;45.394;10.978;2022-10-16T06:38:42;80.95;;;42.47;;
23384;SDS011;11865;45.394;10.978;2022-10-16T06:41:14;78.75;;;43.55;;
23384;SDS011;11865;45.394;10.978;2022-10-16T06:43:46;78.95;;;42.88;;
23384;SDS011;11865;45.394;10.978;2022-10-16T06:46:15;79.40;;;41.63;;
23384;SDS011;11865;45.394;10.978;2022-10-16T06:48:45;75.88;;;41.97;;
23384;SDS011;11865;45.394;10.978;2022-10-16T06:51:23;78.50;;;41.80;;
23384;SDS011;11865;45.394;10.978;2022-10-16T06:53:53;81.78;;;42.38;;
23384;SDS011;11865;45.394;10.978;2022-10-16T06:56:31;76.68;;;41.25;;
23384;SDS011;11865;45.394;10.978;2022-10-16T06:58:59;76.40;;;40.67;;
23384;SDS011;11865;45.394;10.978;2022-10-16T07:01:27;73.03;;;40.17;;
23384;SDS011;11865;45.394;10.978;2022-10-16T07:03:54;74.55;;;41.03;;
23384;SDS011;11865;45.394;10.978;2022-10-16T07:06:22;74.95;;;40.05;;
23384;SDS011;11865;45.394;10.978;2022-10-16T07:08:51;71.68;;;40.35;;
23384;SDS011;11865;45.394;10.978;2022-10-16T07:11:20;75.05;;;40.00;;
23384;SDS011;11865;45.394;10.978;2022-10-16T07:13:49;70.15;;;38.67;;
23384;SDS011;11865;45.394;10.978;2022-10-16T07:16:23;73.05;;;39.30;;
23384;SDS011;11865;45.394;10.978;2022-10-16T07:18:53;69.88;;;39.47;;
23384;SDS011;11865;45.394;10.978;2022-10-16T07:21:27;77.22;;;41.03;;
23384;SDS011;11865;45.394;10.978;2022-10-16T07:23:57;67.47;;;38.40;;
23384;SDS011;11865;45.394;10.978;2022-10-16T07:26:26;77.32;;;41.67;;
23384;SDS011;11865;45.394;10.978;2022-10-16T07:28:55;73.35;;;39.83;;
23384;SDS011;11865;45.394;10.978;2022-10-16T07:31:24;79.47;;;40.88;;
23384;SDS011;11865;45.394;10.978;2022-10-16T07:33:52;73.88;;;39.72;;
23384;SDS011;11865;45.394;10.978;2022-10-16T07:36:20;74.07;;;40.08;;
23384;SDS011;11865;45.394;10.978;2022-10-16T07:38:48;74.15;;;40.28;;
23384;SDS011;11865;45.394;10.978;2022-10-16T07:41:19;75.25;;;41.35;;
23384;SDS011;11865;45.394;10.978;2022-10-16T07:43:48;71.45;;;41.30;;
23384;SDS011;11865;45.394;10.978;2022-10-16T07:46:17;76.28;;;40.97;;
23384;SDS011;11865;45.394;10.978;2022-10-16T07:48:45;75.45;;;41.10;;
23384;SDS011;11865;45.394;10.978;2022-10-16T07:51:15;81.30;;;41.45;;
23384;SDS011;11865;45.394;10.978;2022-10-16T07:53:47;73.57;;;41.22;;
23384;SDS011;11865;45.394;10.978;2022-10-16T07:56:15;83.60;;;43.22;;
23384;SDS011;11865;45.394;10.978;2022-10-16T07:58:43;78.38;;;43.78;;
23384;SDS011;11865;45.394;10.978;2022-10-16T08:01:12;82.43;;;43.05;;
23384;SDS011;11865;45.394;10.978;2022-10-16T08:03:42;86.50;;;45.33;;
23384;SDS011;11865;45.394;10.978;2022-10-16T08:06:14;80.18;;;42.45;;
23384;SDS011;11865;45.394;10.978;2022-10-16T08:08:42;83.47;;;45.15;;
23384;SDS011;11865;45.394;10.978;2022-10-16T08:11:10;81.90;;;43.28;;
23384;SDS011;11865;45.394;10.978;2022-10-16T08:13:37;79.68;;;46.15;;
23384;SDS011;11865;45.394;10.978;2022-10-16T08:16:05;81.57;;;43.78;;
23384;SDS011;11865;45.394;10.978;2022-10-16T08:18:35;82.75;;;43.38;;
23384;SDS011;11865;45.394;10.978;2022-10-16T08:21:04;85.55;;;43.80;;
23384;SDS011;11865;45.394;10.978;2022-10-16T08:23:33;82.05;;;45.85;;
23384;SDS011;11865;45.394;10.978;2022-10-16T08:26:02;81.38;;;44.13;;
23384;SDS011;11865;45.394;10.978;2022-10-16T08:28:32;79.68;;;43.97;;
23384;SDS011;11865;45.394;10.978;2022-10-16T08:31:09;83.32;;;45.55;;
23384;SDS011;11865;45.394;10.978;2022-10-16T08:33:40;81.72;;;43.47;;
23384;SDS011;11865;45.394;10.978;2022-10-16T08:36:09;80.95;;;44.60;;
23384;SDS011;11865;45.394;10.978;2022-10-16T08:38:38;87.93;;;45.40;;
23384;SDS011;11865;45.394;10.978;2022-10-16T08:41:14;84.93;;;45.00;;
23384;SDS011;11865;45.394;10.978;2022-10-16T08:46:40;84.65;;;45.85;;
23384;SDS011;11865;45.394;10.978;2022-10-16T08:49:18;85.32;;;43.50;;
23384;SDS011;11865;45.394;10.978;2022-10-16T08:51:46;82.05;;;43.00;;
23384;SDS011;11865;45.394;10.978;2022-10-16T08:54:32;84.47;;;43.63;;
23384;SDS011;11865;45.394;10.978;2022-10-16T08:57:14;80.72;;;43.90;;
23384;SDS011;11865;45.394;10.978;2022-10-16T09:02:40;79.63;;;42.58;;
23384;SDS011;11865;45.394;10.978;2022-10-16T09:21:25;79.20;;;42.58;;
23384;SDS011;11865;45.394;10.978;2022-10-16T09:23:59;98.47;;;47.25;;
23384;SDS011;11865;45.394;10.978;2022-10-16T09:26:35;89.03;;;44.05;;
23384;SDS011;11865;45.394;10.978;2022-10-16T09:29:02;87.95;;;45.65;;
23384;SDS011;11865;45.394;10.978;2022-10-16T09:31:30;81.30;;;44.30;;
23384;SDS011;11865;45.394;10.978;2022-10-16T09:33:58;91.38;;;45.97;;
23384;SDS011;11865;45.394;10.978;2022-10-16T09:36:39;81.53;;;44.53;;
23384;SDS011;11865;45.394;10.978;2022-10-16T09:39:10;91.00;;;46.10;;
23384;SDS011;11865;45.394;10.978;2022-10-16T09:41:39;84.50;;;45.17;;
23384;SDS011;11865;45.394;10.978;2022-10-16T09:44:28;77.55;;;41.25;;
23384;SDS011;11865;45.394;10.978;2022-10-16T09:47:31;81.20;;;41.35;;
23384;SDS011;11865;45.394;10.978;2022-10-16T09:49:54;82.68;;;43.97;;
23384;SDS011;11865;45.394;10.978;2022-10-16T09:52:24;84.40;;;43.78;;
23384;SDS011;11865;45.394;10.978;2022-10-16T09:54:53;80.15;;;42.63;;
23384;SDS011;11865;45.394;10.978;2022-10-16T09:57:22;82.07;;;43.35;;
23384;SDS011;11865;45.394;10.978;2022-10-16T09:59:52;70.10;;;37.42;;
23384;SDS011;11865;45.394;10.978;2022-10-16T10:02:31;68.97;;;39.83;;
23384;SDS011;11865;45.394;10.978;2022-10-16T10:05:02;79.43;;;42.30;;
23384;SDS011;11865;45.394;10.978;2022-10-16T10:07:37;80.65;;;40.67;;
23384;SDS011;11865;45.394;10.978;2022-10-16T10:10:22;78.45;;;40.88;;
23384;SDS011;11865;45.394;10.978;2022-10-16T10:12:50;93.53;;;44.28;;
23384;SDS011;11865;45.394;10.978;2022-10-16T10:15:17;77.68;;;41.17;;
23384;SDS011;11865;45.394;10.978;2022-10-16T10:17:49;69.07;;;37.42;;
23384;SDS011;11865;45.394;10.978;2022-10-16T10:20:29;62.88;;;36.20;;
23384;SDS011;11865;45.394;10.978;2022-10-16T10:28:42;71.15;;;35.80;;
23384;SDS011;11865;45.394;10.978;2022-10-16T10:31:20;71.13;;;37.88;;
23384;SDS011;11865;45.394;10.978;2022-10-16T10:36:41;66.07;;;36.38;;
23384;SDS011;11865;45.394;10.978;2022-10-16T10:39:25;72.78;;;38.13;;
23384;SDS011;11865;45.394;10.978;2022-10-16T10:50:43;67.55;;;39.00;;
23384;SDS011;11865;45.394;10.978;2022-10-16T10:59:28;68.25;;;36.17;;
23384;SDS011;11865;45.394;10.978;2022-10-16T11:02:00;63.75;;;37.47;;
23384;SDS011;11865;45.394;10.978;2022-10-16T11:08:02;70.40;;;37.63;;
23384;SDS011;11865;45.394;10.978;2022-10-16T11:16:17;73.18;;;41.47;;
23384;SDS011;11865;45.394;10.978;2022-10-16T11:18:49;71.05;;;39.97;;
23384;SDS011;11865;45.394;10.978;2022-10-16T11:21:22;72.13;;;39.53;;
23384;SDS011;11865;45.394;10.978;2022-10-16T11:26:28;71.60;;;40.65;;
23384;SDS011;11865;45.394;10.978;2022-10-16T11:29:00;69.88;;;38.22;;
23384;SDS011;11865;45.394;10.978;2022-10-16T11:34:28;70.22;;;38.10;;
23384;SDS011;11865;45.394;10.978;2022-10-16T11:37:16;69.32;;;38.25;;
23384;SDS011;11865;45.394;10.978;2022-10-16T11:39:48;73.72;;;39.53;;
23384;SDS011;11865;45.394;10.978;2022-10-16T11:42:22;66.80;;;38.13;;
23384;SDS011;11865;45.394;10.978;2022-10-16T11:45:31;74.63;;;38.13;;
23384;SDS011;11865;45.394;10.978;2022-10-16T11:48:11;68.78;;;37.88;;
23384;SDS011;11865;45.394;10.978;2022-10-16T11:50:56;64.93;;;38.05;;
23384;SDS011;11865;45.394;10.978;2022-10-16T11:56:08;67.82;;;37.72;;
23384;SDS011;11865;45.394;10.978;2022-10-16T11:58:54;69.07;;;36.60;;
23384;SDS011;11865;45.394;10.978;2022-10-16T12:01:31;68.50;;;38.95;;
23384;SDS011;11865;45.394;10.978;2022-10-16T12:04:26;60.28;;;35.55;;
23384;SDS011;11865;45.394;10.978;2022-10-16T12:07:03;62.50;;;36.22;;
23384;SDS011;11865;45.394;10.978;2022-10-16T12:09:44;59.83;;;34.15;;
23384;SDS011;11865;45.394;10.978;2022-10-16T12:12:28;64.85;;;35.58;;
23384;SDS011;11865;45.394;10.978;2022-10-16T12:18:00;65.90;;;35.08;;
23384;SDS011;11865;45.394;10.978;2022-10-16T12:20:29;62.92;;;35.55;;
23384;SDS011;11865;45.394;10.978;2022-10-16T12:23:00;63.70;;;37.33;;
23384;SDS011;11865;45.394;10.978;2022-10-16T12:30:41;61.47;;;35.38;;
23384;SDS011;11865;45.394;10.978;2022-10-16T12:33:28;63.72;;;36.55;;
23384;SDS011;11865;45.394;10.978;2022-10-16T12:36:05;64.07;;;35.97;;
23384;SDS011;11865;45.394;10.978;2022-10-16T12:41:12;62.38;;;35.05;;
23384;SDS011;11865;45.394;10.978;2022-10-16T12:43:51;59.90;;;35.67;;
23384;SDS011;11865;45.394;10.978;2022-10-16T12:46:21;66.00;;;36.20;;
23384;SDS011;11865;45.394;10.978;2022-10-16T12:48:49;59.97;;;35.53;;
23384;SDS011;11865;45.394;10.978;2022-10-16T12:51:34;63.25;;;36.58;;
23384;SDS011;11865;45.394;10.978;2022-10-16T13:19:43;66.78;;;36.60;;
23384;SDS011;11865;45.394;10.978;2022-10-16T13:25:08;63.55;;;35.83;;
23384;SDS011;11865;45.394;10.978;2022-10-16T13:30:30;61.65;;;34.63;;
23384;SDS011;11865;45.394;10.978;2022-10-16T13:35:31;59.15;;;34.10;;
23384;SDS011;11865;45.394;10.978;2022-10-16T13:40:51;62.67;;;33.80;;
23384;SDS011;11865;45.394;10.978;2022-10-16T13:43:37;63.10;;;34.05;;
23384;SDS011;11865;45.394;10.978;2022-10-16T13:46:19;60.33;;;36.03;;
23384;SDS011;11865;45.394;10.978;2022-10-16T13:48:59;65.97;;;34.72;;
23384;SDS011;11865;45.394;10.978;2022-10-16T13:51:28;60.25;;;33.42;;
23384;SDS011;11865;45.394;10.978;2022-10-16T13:53:56;61.08;;;33.17;;
23384;SDS011;11865;45.394;10.978;2022-10-16T13:56:26;54.97;;;32.67;;
23384;SDS011;11865;45.394;10.978;2022-10-16T13:59:04;66.15;;;34.63;;
23384;SDS011;11865;45.394;10.978;2022-10-16T14:01:51;58.50;;;33.63;;
23384;SDS011;11865;45.394;10.978;2022-10-16T14:04:21;61.53;;;34.47;;
23384;SDS011;11865;45.394;10.978;2022-10-16T14:06:49;66.85;;;35.30;;
23384;SDS011;11865;45.394;10.978;2022-10-16T14:09:23;60.55;;;34.80;;
23384;SDS011;11865;45.394;10.978;2022-10-16T14:11:59;61.15;;;33.05;;
23384;SDS011;11865;45.394;10.978;2022-10-16T14:14:32;53.75;;;32.20;;
23384;SDS011;11865;45.394;10.978;2022-10-16T14:17:13;58.40;;;33.15;;
23384;SDS011;11865;45.394;10.978;2022-10-16T14:19:54;56.45;;;32.13;;
23384;SDS011;11865;45.394;10.978;2022-10-16T14:24:56;56.22;;;30.00;;
23384;SDS011;11865;45.394;10.978;2022-10-16T14:30:08;50.13;;;30.63;;
23384;SDS011;11865;45.394;10.978;2022-10-16T14:32:41;54.50;;;29.85;;
23384;SDS011;11865;45.394;10.978;2022-10-16T14:35:23;54.97;;;32.03;;
23384;SDS011;11865;45.394;10.978;2022-10-16T14:37:58;58.35;;;31.60;;
23384;SDS011;11865;45.394;10.978;2022-10-16T14:40:34;56.35;;;32.05;;
23384;SDS011;11865;45.394;10.978;2022-10-16T14:43:04;55.70;;;31.30;;
23384;SDS011;11865;45.394;10.978;2022-10-16T14:45:32;59.20;;;32.63;;
23384;SDS011;11865;45.394;10.978;2022-10-16T14:48:02;53.42;;;30.23;;
23384;SDS011;11865;45.394;10.978;2022-10-16T14:50:33;54.67;;;31.60;;
23384;SDS011;11865;45.394;10.978;2022-10-16T14:53:00;52.53;;;32.05;;
23384;SDS011;11865;45.394;10.978;2022-10-16T14:55:28;56.63;;;31.85;;
23384;SDS011;11865;45.394;10.978;2022-10-16T14:57:55;66.35;;;33.55;;
23384;SDS011;11865;45.394;10.978;2022-10-16T15:00:26;53.42;;;30.85;;
23384;SDS011;11865;45.394;10.978;2022-10-16T15:02:54;55.97;;;31.23;;
23384;SDS011;11865;45.394;10.978;2022-10-16T15:05:22;50.05;;;29.70;;
23384;SDS011;11865;45.394;10.978;2022-10-16T15:07:53;50.95;;;30.80;;
23384;SDS011;11865;45.394;10.978;2022-10-16T15:10:22;56.72;;;30.55;;
23384;SDS011;11865;45.394;10.978;2022-10-16T15:12:51;54.80;;;32.13;;
23384;SDS011;11865;45.394;10.978;2022-10-16T15:17:50;54.00;;;30.02;;
23384;SDS011;11865;45.394;10.978;2022-10-16T15:20:24;67.38;;;32.90;;
23384;SDS011;11865;45.394;10.978;2022-10-16T15:22:53;58.95;;;30.75;;
23384;SDS011;11865;45.394;10.978;2022-10-16T15:28:00;55.47;;;32.50;;
23384;SDS011;11865;45.394;10.978;2022-10-16T15:30:28;60.03;;;31.83;;
23384;SDS011;11865;45.394;10.978;2022-10-16T15:32:56;62.83;;;33.10;;
23384;SDS011;11865;45.394;10.978;2022-10-16T15:35:23;52.95;;;31.08;;
23384;SDS011;11865;45.394;10.978;2022-10-16T15:37:51;50.58;;;28.67;;
23384;SDS011;11865;45.394;10.978;2022-10-16T15:40:19;86.78;;;37.03;;
23384;SDS011;11865;45.394;10.978;2022-10-16T15:42:47;68.32;;;34.78;;
23384;SDS011;11865;45.394;10.978;2022-10-16T15:45:15;71.53;;;34.83;;
23384;SDS011;11865;45.394;10.978;2022-10-16T15:47:44;65.72;;;35.45;;
23384;SDS011;11865;45.394;10.978;2022-10-16T15:50:12;58.65;;;32.00;;
23384;SDS011;11865;45.394;10.978;2022-10-16T15:52:41;58.67;;;31.13;;
23384;SDS011;11865;45.394;10.978;2022-10-16T15:55:09;59.95;;;32.42;;
23384;SDS011;11865;45.394;10.978;2022-10-16T15:57:39;55.05;;;30.52;;
23384;SDS011;11865;45.394;10.978;2022-10-16T16:00:12;52.83;;;30.38;;
23384;SDS011;11865;45.394;10.978;2022-10-16T16:02:43;63.60;;;31.85;;
23384;SDS011;11865;45.394;10.978;2022-10-16T16:05:10;52.83;;;28.65;;
23384;SDS011;11865;45.394;10.978;2022-10-16T16:07:38;47.53;;;27.58;;
23384;SDS011;11865;45.394;10.978;2022-10-16T16:10:07;67.57;;;34.08;;
23384;SDS011;11865;45.394;10.978;2022-10-16T16:12:36;60.97;;;32.97;;
23384;SDS011;11865;45.394;10.978;2022-10-16T16:15:05;48.25;;;29.35;;
23384;SDS011;11865;45.394;10.978;2022-10-16T16:17:34;64.32;;;32.05;;
23384;SDS011;11865;45.394;10.978;2022-10-16T16:20:04;73.65;;;35.30;;
23384;SDS011;11865;45.394;10.978;2022-10-16T16:22:32;68.63;;;34.88;;
23384;SDS011;11865;45.394;10.978;2022-10-16T16:24:59;62.75;;;31.38;;
23384;SDS011;11865;45.394;10.978;2022-10-16T16:27:27;74.00;;;36.17;;
23384;SDS011;11865;45.394;10.978;2022-10-16T16:29:57;55.38;;;28.40;;
23384;SDS011;11865;45.394;10.978;2022-10-16T16:32:24;56.50;;;29.30;;
23384;SDS011;11865;45.394;10.978;2022-10-16T16:34:52;64.63;;;34.33;;
23384;SDS011;11865;45.394;10.978;2022-10-16T16:37:19;63.13;;;35.13;;
23384;SDS011;11865;45.394;10.978;2022-10-16T16:39:47;54.72;;;28.85;;
23384;SDS011;11865;45.394;10.978;2022-10-16T16:42:14;56.22;;;30.95;;
23384;SDS011;11865;45.394;10.978;2022-10-16T16:44:42;50.20;;;30.58;;
23384;SDS011;11865;45.394;10.978;2022-10-16T16:47:09;56.50;;;30.05;;